Saffron Walden, United Kingdom
Current Conditions -  °F | °C
As of 4:20 AM on Wednesday 22 Oct 2014 (Local Time) from EGSS Reporting Station
Clear Clear  
Wind Chill: 39°   Ceiling: Unl
Heat Index: 45°   Visibility: 6mi
Dew Point: 36°   Wind: 12mph
Humidity: 71%   Direction: 280°W
Pressure: 30.18"   Gusts: NA
Location:  52.02°N, 0.24°E
Report Text: EGSS 220320Z 28010KT CAVOK 07/02 Q1022
Loading
Personal Weather Stations






























Interactive Weather Map
Tropical Storm Tracking
New forecast layout! Learn more

10-Day Weather Forecast

Advertisements
Track Severe Weather on mobile